createdAt,value
2017-07-11T00:00:45.348Z,18.40
2017-07-11T00:03:12.844Z,23.30
2017-07-11T00:05:40.298Z,21.67
2017-07-11T00:08:07.749Z,30.93
2017-07-11T00:10:35.213Z,23.00
2017-07-11T00:13:02.630Z,22.73
2017-07-11T00:15:30.070Z,19.23
2017-07-11T00:17:58.262Z,25.73
2017-07-11T00:20:25.697Z,28.43
2017-07-11T00:22:53.897Z,22.57
2017-07-11T00:25:21.341Z,22.80
2017-07-11T00:27:48.769Z,23.87
2017-07-11T00:30:16.973Z,25.53
2017-07-11T00:32:44.400Z,24.50
2017-07-11T00:35:12.601Z,21.30
2017-07-11T00:37:40.043Z,19.97
2017-07-11T00:40:08.221Z,20.53
2017-07-11T00:42:35.722Z,18.90
2017-07-11T00:45:03.157Z,19.93
2017-07-11T00:47:30.582Z,26.37
2017-07-11T00:49:58.776Z,25.30
2017-07-11T00:52:26.209Z,28.80
2017-07-11T00:54:54.438Z,27.37
2017-07-11T00:57:21.875Z,26.50
2017-07-11T00:59:49.291Z,27.60
2017-07-11T01:02:17.495Z,23.53
2017-07-11T01:04:44.959Z,27.17
2017-07-11T01:07:12.386Z,27.33
2017-07-11T01:09:40.576Z,26.10
2017-07-11T01:12:08.022Z,22.33
2017-07-11T01:14:36.206Z,25.10
2017-07-11T01:17:03.635Z,25.20
2017-07-11T01:19:31.822Z,30.97
2017-07-11T01:21:59.253Z,31.87
2017-07-11T01:24:26.687Z,28.43
2017-07-11T01:26:54.117Z,33.70
2017-07-11T01:29:21.554Z,42.10
2017-07-11T01:31:48.973Z,33.30
2017-07-11T01:34:16.397Z,35.70
2017-07-11T01:36:43.841Z,31.87
2017-07-11T01:39:11.265Z,32.80
2017-07-11T01:41:38.700Z,33.30
2017-07-11T01:44:06.118Z,35.20
2017-07-11T01:46:33.554Z,38.77
2017-07-11T01:49:00.981Z,39.23
2017-07-11T01:51:29.177Z,46.93
2017-07-11T01:53:56.603Z,43.90
2017-07-11T01:56:24.818Z,49.53
2017-07-11T01:58:52.248Z,34.63
2017-07-11T02:01:19.673Z,37.70
2017-07-11T02:03:47.102Z,49.47
2017-07-11T02:06:14.546Z,42.13
2017-07-11T02:08:41.970Z,35.47
2017-07-11T02:11:09.414Z,42.30
2017-07-11T02:13:37.615Z,38.97
2017-07-11T02:16:05.052Z,40.77
2017-07-11T02:18:33.249Z,47.07
2017-07-11T02:21:00.690Z,38.53
2017-07-11T02:23:28.132Z,45.83
2017-07-11T02:25:56.317Z,44.40
2017-07-11T02:28:23.744Z,45.80
2017-07-11T02:30:51.193Z,50.23
2017-07-11T02:33:18.605Z,46.30
2017-07-11T02:35:46.032Z,47.27
2017-07-11T02:38:13.470Z,43.40
2017-07-11T02:40:41.667Z,46.47
2017-07-11T02:43:09.101Z,42.80
2017-07-11T02:45:36.534Z,50.00
2017-07-11T02:48:03.964Z,42.47
2017-07-11T02:50:31.390Z,51.53
2017-07-11T02:52:58.826Z,45.77
2017-07-11T02:55:27.026Z,48.77
2017-07-11T02:57:54.460Z,45.47
2017-07-11T03:00:22.650Z,40.90
2017-07-11T03:02:50.078Z,48.90
2017-07-11T03:05:17.514Z,57.43
2017-07-11T03:07:44.959Z,51.63
2017-07-11T03:10:12.379Z,47.07
2017-07-11T03:12:39.829Z,55.60
2017-07-11T03:15:07.255Z,47.97
2017-07-11T03:17:34.694Z,54.30
2017-07-11T03:20:02.117Z,47.03
2017-07-11T03:22:29.585Z,50.60
2017-07-11T03:24:57.017Z,48.27
2017-07-11T03:27:24.456Z,46.67
2017-07-11T03:29:52.652Z,45.57
2017-07-11T03:32:20.101Z,43.30
2017-07-11T03:34:47.531Z,49.80
2017-07-11T03:37:15.722Z,59.50
2017-07-11T03:39:43.150Z,64.67
2017-07-11T03:42:11.377Z,59.87
2017-07-11T03:44:38.785Z,72.47
2017-07-11T03:47:06.981Z,64.50
2017-07-11T03:49:34.417Z,62.37
2017-07-11T03:52:02.614Z,69.33
2017-07-11T03:54:30.043Z,70.97
2017-07-11T03:56:58.245Z,69.03
2017-07-11T03:59:25.684Z,66.93
2017-07-11T04:01:53.900Z,63.77
2017-07-11T04:04:21.306Z,74.57
2017-07-11T04:06:49.503Z,62.47
2017-07-11T04:09:16.991Z,63.10
2017-07-11T04:11:44.415Z,65.33
2017-07-11T04:14:11.854Z,61.77
2017-07-11T04:16:40.049Z,67.77
2017-07-11T04:19:07.485Z,70.70
2017-07-11T04:21:35.699Z,67.53
2017-07-11T04:24:03.124Z,77.57
2017-07-11T04:26:30.561Z,65.50
2017-07-11T04:28:58.767Z,66.27
2017-07-11T04:31:26.191Z,67.40
2017-07-11T04:33:54.381Z,64.37
2017-07-11T04:36:21.814Z,67.37
2017-07-11T04:38:50.009Z,64.20
2017-07-11T04:41:17.441Z,69.57
2017-07-11T04:43:45.642Z,75.20
2017-07-11T04:46:13.069Z,87.83
2017-07-11T04:48:41.273Z,78.87
2017-07-11T04:51:08.715Z,69.97
2017-07-11T04:53:36.909Z,68.03
2017-07-11T04:56:04.343Z,71.07
2017-07-11T04:58:32.536Z,68.47
2017-07-11T05:00:59.987Z,60.90
2017-07-11T05:03:27.417Z,81.00
2017-07-11T05:05:54.843Z,64.47
2017-07-11T05:08:22.264Z,62.57
2017-07-11T05:10:49.703Z,62.33
2017-07-11T05:13:17.460Z,74.47
2017-07-11T05:15:45.664Z,67.00
2017-07-11T05:18:13.101Z,75.33
2017-07-11T05:20:40.540Z,63.33
2017-07-11T05:23:08.729Z,73.77
2017-07-11T05:25:36.177Z,65.73
2017-07-11T05:28:04.369Z,61.53
2017-07-11T05:30:31.801Z,66.67
2017-07-11T05:32:59.997Z,55.33
2017-07-11T05:35:27.421Z,52.33
2017-07-11T05:37:55.616Z,58.70
2017-07-11T05:40:23.041Z,58.17
2017-07-11T05:42:50.468Z,49.33
2017-07-11T05:45:17.909Z,59.23
2017-07-11T05:47:45.332Z,62.60
2017-07-11T05:50:12.776Z,58.57
2017-07-11T05:52:40.969Z,58.23
2017-07-11T05:55:08.401Z,54.90
2017-07-11T05:57:35.833Z,55.70
2017-07-11T06:00:03.261Z,50.10
2017-07-11T06:02:30.700Z,53.53
2017-07-11T06:04:58.120Z,53.73
2017-07-11T06:07:25.553Z,49.03
2017-07-11T06:09:52.998Z,49.57
2017-07-11T06:12:20.425Z,55.20
2017-07-11T06:14:47.861Z,46.50
2017-07-11T06:17:15.308Z,47.70
2017-07-11T06:19:42.790Z,50.80
2017-07-11T06:22:10.224Z,52.70
2017-07-11T06:24:38.419Z,48.83
2017-07-11T06:27:05.883Z,38.30
2017-07-11T06:29:33.323Z,41.30
2017-07-11T06:32:01.541Z,42.87
2017-07-11T06:34:29.995Z,33.37
2017-07-11T06:36:57.433Z,31.50
2017-07-11T06:39:24.870Z,33.70
2017-07-11T06:41:53.057Z,30.27
2017-07-11T06:44:20.501Z,38.60
2017-07-11T06:46:48.691Z,30.53
2017-07-11T06:49:16.185Z,35.33
2017-07-11T06:51:43.610Z,35.80
2017-07-11T06:54:11.041Z,37.30
2017-07-11T06:56:39.263Z,35.10
2017-07-11T06:59:06.690Z,40.57
2017-07-11T07:01:34.144Z,36.50
2017-07-11T07:04:01.572Z,43.87
2017-07-11T07:06:29.795Z,36.57
2017-07-11T07:08:57.233Z,33.83
2017-07-11T07:11:24.680Z,35.07
2017-07-11T07:13:52.122Z,32.57
2017-07-11T07:16:20.315Z,30.53
2017-07-11T07:18:47.748Z,32.33
2017-07-11T07:21:15.957Z,28.90
2017-07-11T07:23:43.410Z,31.00
2017-07-11T07:26:10.826Z,35.83
2017-07-11T07:28:38.337Z,33.07
2017-07-11T07:31:05.771Z,34.30
2017-07-11T07:33:33.192Z,40.20
2017-07-11T07:36:01.400Z,33.60
2017-07-11T07:38:28.829Z,40.60
2017-07-11T07:40:57.089Z,41.40
2017-07-11T07:43:24.518Z,39.97
2017-07-11T07:45:51.951Z,37.63
2017-07-11T07:48:19.394Z,35.93
2017-07-11T07:50:46.862Z,34.93
2017-07-11T07:53:14.278Z,35.77
2017-07-11T07:55:41.732Z,37.20
2017-07-11T07:58:09.241Z,36.73
2017-07-11T08:00:36.681Z,34.50
2017-07-11T08:03:04.165Z,30.73
2017-07-11T08:05:31.691Z,32.23
2017-07-11T08:07:59.125Z,31.90
2017-07-11T08:10:27.367Z,30.30
2017-07-11T08:12:54.806Z,29.70
2017-07-11T08:15:22.221Z,28.20
2017-07-11T08:17:49.661Z,28.97
2017-07-11T08:20:17.855Z,29.97
2017-07-11T08:22:45.277Z,27.97
2017-07-11T08:25:12.768Z,26.40
2017-07-11T08:27:40.970Z,26.33
2017-07-11T08:30:08.624Z,25.70
2017-07-11T08:32:36.092Z,22.07
2017-07-11T08:35:03.545Z,22.63
2017-07-11T08:37:30.988Z,25.60
2017-07-11T08:39:58.440Z,20.80
2017-07-11T08:42:25.901Z,25.07
2017-07-11T08:44:53.326Z,21.73
2017-07-11T08:47:21.521Z,25.60
2017-07-11T08:49:48.957Z,22.40
2017-07-11T08:52:17.208Z,21.00
2017-07-11T08:54:44.669Z,19.40
2017-07-11T08:57:12.085Z,20.37
2017-07-11T08:59:39.521Z,20.20
2017-07-11T09:02:06.953Z,19.67
2017-07-11T09:04:35.145Z,19.40
2017-07-11T09:07:02.570Z,19.33
2017-07-11T09:09:30.818Z,24.70
2017-07-11T09:11:58.236Z,29.17
2017-07-11T09:14:25.666Z,21.23
2017-07-11T09:16:53.866Z,24.40
2017-07-11T09:19:21.290Z,20.70
2017-07-11T09:21:49.484Z,18.47
2017-07-11T09:24:16.913Z,21.10
2017-07-11T09:26:45.098Z,24.40
2017-07-11T09:29:13.300Z,19.00
2017-07-11T09:31:40.728Z,24.93
2017-07-11T09:34:08.923Z,24.90
2017-07-11T09:36:36.358Z,35.63
2017-07-11T09:39:04.550Z,24.80
2017-07-11T09:41:31.969Z,21.10
2017-07-11T09:43:59.425Z,28.40
2017-07-11T09:46:26.849Z,24.60
2017-07-11T09:48:54.277Z,25.10
2017-07-11T09:51:21.719Z,25.60
2017-07-11T09:53:49.150Z,22.27
2017-07-11T09:56:16.584Z,32.60
2017-07-11T09:58:44.011Z,22.47
2017-07-11T10:01:11.446Z,19.27
2017-07-11T10:03:38.874Z,25.07
2017-07-11T10:06:06.302Z,25.53
2017-07-11T10:08:33.832Z,23.90
2017-07-11T10:11:01.273Z,21.67
2017-07-11T10:13:28.707Z,21.50
2017-07-11T10:15:56.896Z,27.03
2017-07-11T10:18:24.320Z,25.77
2017-07-11T10:20:51.751Z,24.70
2017-07-11T10:23:19.172Z,25.33
2017-07-11T10:25:46.597Z,30.00
2017-07-11T10:28:14.034Z,30.73
2017-07-11T10:30:41.470Z,31.70
2017-07-11T10:33:08.945Z,27.30
2017-07-11T10:35:36.386Z,37.00
2017-07-11T10:38:03.811Z,30.93
2017-07-11T10:40:31.249Z,29.20
2017-07-11T10:42:59.445Z,31.83
2017-07-11T10:45:26.870Z,27.37
2017-07-11T10:47:55.455Z,32.60
2017-07-11T10:50:23.638Z,33.80
2017-07-11T10:52:51.078Z,35.63
2017-07-11T10:55:19.306Z,33.67
2017-07-11T10:57:46.733Z,37.57
2017-07-11T11:00:14.167Z,33.93
2017-07-11T11:02:42.361Z,31.70
2017-07-11T11:05:09.799Z,31.93
2017-07-11T11:07:37.985Z,34.43
2017-07-11T11:10:05.417Z,32.40
2017-07-11T11:12:33.690Z,31.37
2017-07-11T11:15:01.130Z,33.27
2017-07-11T11:17:28.554Z,31.10
2017-07-11T11:19:55.993Z,33.50
2017-07-11T11:22:23.421Z,41.27
2017-07-11T11:24:51.623Z,63.93
2017-07-11T11:27:19.073Z,36.67
2017-07-11T11:29:46.505Z,39.40
2017-07-11T11:32:14.705Z,40.17
2017-07-11T11:34:42.142Z,35.87
2017-07-11T11:37:09.581Z,40.53
2017-07-11T11:39:37.019Z,38.43
2017-07-11T11:42:04.438Z,44.90
2017-07-11T11:44:31.871Z,34.93
2017-07-11T11:46:59.316Z,34.07
2017-07-11T11:49:27.547Z,33.40
2017-07-11T11:51:54.982Z,39.83
2017-07-11T11:54:22.421Z,40.03
2017-07-11T11:56:49.860Z,37.10
2017-07-11T11:59:18.054Z,44.73
2017-07-11T12:01:45.489Z,40.47
2017-07-11T12:04:13.679Z,41.23
2017-07-11T12:06:41.261Z,41.83
2017-07-11T12:09:08.686Z,42.23
2017-07-11T12:11:36.123Z,43.67
2017-07-11T12:14:04.337Z,42.20
2017-07-11T12:16:31.777Z,37.67
2017-07-11T12:18:59.214Z,46.43
2017-07-11T12:21:27.463Z,43.53
2017-07-11T12:23:54.888Z,42.67
2017-07-11T12:26:22.406Z,43.03
2017-07-11T12:28:50.602Z,42.17
2017-07-11T12:31:18.038Z,46.10
2017-07-11T12:33:46.229Z,41.93
2017-07-11T12:36:13.671Z,53.47
2017-07-11T12:38:41.866Z,44.70
2017-07-11T12:41:09.294Z,40.77
2017-07-11T12:43:37.499Z,41.57
2017-07-11T12:46:04.941Z,46.87
2017-07-11T12:48:32.375Z,39.13
2017-07-11T12:51:00.606Z,38.90
2017-07-11T12:53:28.036Z,42.77
2017-07-11T12:55:55.463Z,37.23
2017-07-11T12:58:23.663Z,35.93
2017-07-11T13:00:51.098Z,36.67
2017-07-11T13:03:19.301Z,32.33
2017-07-11T13:05:46.750Z,37.10
2017-07-11T13:08:14.185Z,34.47
2017-07-11T13:10:41.594Z,32.20
2017-07-11T13:13:09.035Z,29.90
2017-07-11T13:15:36.704Z,29.90
2017-07-11T13:18:03.939Z,22.70
2017-07-11T13:20:31.373Z,23.70
2017-07-11T13:22:58.866Z,28.20
2017-07-11T13:25:26.289Z,24.43
2017-07-11T13:27:53.741Z,25.50
2017-07-11T13:30:22.021Z,24.00
2017-07-11T13:32:49.445Z,23.30
2017-07-11T13:35:17.642Z,24.50
2017-07-11T13:37:45.082Z,24.83
2017-07-11T13:40:13.313Z,27.00
2017-07-11T13:42:40.777Z,24.07
2017-07-11T13:45:08.202Z,21.20
2017-07-11T13:47:35.634Z,23.00
2017-07-11T13:50:03.955Z,24.73
2017-07-11T13:52:31.382Z,24.73
2017-07-11T13:54:58.814Z,22.40
2017-07-11T13:57:27.045Z,20.80
2017-07-11T13:59:54.474Z,22.43
2017-07-11T14:02:21.960Z,17.93
2017-07-11T14:04:49.389Z,23.50
2017-07-11T14:07:16.822Z,27.73
2017-07-11T14:09:45.043Z,20.73
2017-07-11T14:12:12.480Z,21.70
2017-07-11T14:14:39.906Z,21.40
2017-07-11T14:17:08.115Z,24.33
2017-07-11T14:19:35.536Z,26.23
2017-07-11T14:22:03.738Z,22.87
2017-07-11T14:24:31.167Z,20.10
2017-07-11T14:26:59.365Z,18.40
2017-07-11T14:29:26.806Z,22.50
2017-07-11T14:31:54.232Z,20.40
2017-07-11T14:34:21.766Z,18.13
2017-07-11T14:36:49.208Z,19.57
2017-07-11T14:39:16.645Z,15.40
2017-07-11T14:41:44.105Z,18.27
2017-07-11T14:44:11.526Z,21.73
2017-07-11T14:46:39.718Z,17.03
2017-07-11T14:49:07.162Z,16.33
2017-07-11T14:51:34.597Z,16.47
2017-07-11T14:54:02.039Z,23.30
2017-07-11T14:56:29.490Z,18.30
2017-07-11T14:58:56.903Z,19.80
2017-07-11T15:01:24.330Z,19.17
2017-07-11T15:03:52.525Z,16.90
2017-07-11T15:06:19.966Z,20.83
2017-07-11T15:08:48.166Z,16.47
2017-07-11T15:11:15.598Z,16.87
2017-07-11T15:13:43.803Z,19.07
2017-07-11T15:16:11.246Z,16.20
2017-07-11T15:18:38.727Z,16.50
2017-07-11T15:21:06.158Z,14.60
2017-07-11T15:23:33.630Z,13.63
2017-07-11T15:26:01.053Z,18.80
2017-07-11T15:28:28.488Z,17.10
2017-07-11T15:30:56.021Z,13.57
2017-07-11T15:33:23.459Z,15.83
2017-07-11T15:35:50.880Z,14.90
2017-07-11T15:38:18.315Z,16.50
2017-07-11T15:40:45.927Z,18.47
2017-07-11T15:43:13.340Z,13.70
2017-07-11T15:45:41.558Z,15.17
2017-07-11T15:48:08.994Z,14.03
2017-07-11T15:50:36.474Z,14.37
2017-07-11T15:53:04.038Z,12.97
2017-07-11T15:55:31.472Z,11.10
2017-07-11T15:57:58.915Z,15.40
2017-07-11T16:00:26.353Z,14.20
2017-07-11T16:02:54.720Z,15.40
2017-07-11T16:05:22.933Z,9.17
2017-07-11T16:07:50.357Z,10.13
2017-07-11T16:10:17.785Z,12.20
2017-07-11T16:12:45.211Z,14.23
2017-07-11T16:15:12.649Z,21.87
2017-07-11T16:17:40.070Z,10.90
2017-07-11T16:20:07.595Z,9.67
2017-07-11T16:22:35.048Z,14.50
2017-07-11T16:25:02.483Z,11.33
2017-07-11T16:27:29.969Z,12.67
2017-07-11T16:29:57.408Z,11.17
2017-07-11T16:32:24.837Z,8.33
2017-07-11T16:34:52.266Z,11.70
2017-07-11T16:37:20.455Z,9.50
2017-07-11T16:39:48.654Z,9.93
2017-07-11T16:42:16.131Z,8.47
2017-07-11T16:44:43.569Z,10.70
2017-07-11T16:47:10.998Z,11.03
2017-07-11T16:49:39.192Z,14.10
2017-07-11T16:52:06.617Z,7.97
2017-07-11T16:54:34.838Z,13.27
2017-07-11T16:57:02.246Z,9.57
2017-07-11T16:59:30.443Z,12.77
2017-07-11T17:01:57.865Z,12.03
2017-07-11T17:04:25.305Z,17.20
2017-07-11T17:06:52.743Z,7.97
2017-07-11T17:09:20.169Z,7.33
2017-07-11T17:11:47.597Z,10.70
2017-07-11T17:14:15.802Z,15.20
2017-07-11T17:16:43.235Z,8.83
2017-07-11T17:19:11.446Z,6.80
2017-07-11T17:21:38.932Z,14.60
2017-07-11T17:24:06.357Z,8.40
2017-07-11T17:26:33.785Z,6.83
2017-07-11T17:29:01.982Z,11.50
2017-07-11T17:31:29.469Z,13.43
2017-07-11T17:33:56.894Z,8.93
2017-07-11T17:36:24.317Z,12.83
2017-07-11T17:38:52.513Z,7.40
2017-07-11T17:41:19.934Z,7.90
2017-07-11T17:43:48.155Z,13.00
2017-07-11T17:46:15.582Z,8.17
2017-07-11T17:48:43.834Z,7.80
2017-07-11T17:51:11.270Z,6.10
2017-07-11T17:53:38.718Z,5.50
2017-07-11T17:56:06.163Z,7.77
2017-07-11T17:58:33.612Z,9.23
2017-07-11T18:01:01.049Z,6.80
2017-07-11T18:03:28.475Z,23.03
2017-07-11T18:05:56.680Z,8.73
2017-07-11T18:08:24.134Z,5.97
2017-07-11T18:10:51.551Z,5.60
2017-07-11T18:13:18.982Z,6.03
2017-07-11T18:15:46.426Z,7.17
2017-07-11T18:18:13.881Z,5.67
2017-07-11T18:20:41.385Z,6.33
2017-07-11T18:23:09.175Z,7.53
2017-07-11T18:25:36.646Z,5.80
2017-07-11T18:28:04.133Z,8.33
2017-07-11T18:30:31.578Z,7.63
2017-07-11T18:32:59.190Z,6.60
2017-07-11T18:35:27.418Z,7.63
2017-07-11T18:37:54.856Z,6.77
2017-07-11T18:40:50.865Z,7.07
2017-07-11T18:43:23.218Z,8.10
2017-07-11T18:45:51.486Z,10.60
2017-07-11T18:48:19.154Z,13.83
2017-07-11T18:50:46.624Z,8.80
2017-07-11T18:53:14.834Z,8.47
2017-07-11T18:55:42.348Z,7.87
2017-07-11T18:58:10.592Z,9.67
2017-07-11T19:00:38.082Z,9.57
2017-07-11T19:03:05.549Z,8.03
2017-07-11T19:05:33.760Z,9.33
2017-07-11T19:08:01.253Z,10.30
2017-07-11T19:10:28.736Z,8.70
2017-07-11T19:12:56.270Z,7.80
2017-07-11T19:15:23.900Z,10.13
2017-07-11T19:17:51.635Z,9.17
2017-07-11T19:20:19.195Z,9.67
2017-07-11T19:22:47.406Z,9.27
2017-07-11T19:25:14.849Z,9.67
2017-07-11T19:27:42.335Z,10.37
2017-07-11T19:30:09.795Z,9.20
2017-07-11T19:32:37.278Z,11.20
2017-07-11T19:35:05.529Z,15.93
2017-07-11T19:37:32.951Z,10.93
2017-07-11T19:40:00.373Z,10.67
2017-07-11T19:42:28.598Z,8.47
2017-07-11T19:44:56.073Z,9.97
2017-07-11T19:47:23.573Z,9.90
2017-07-11T19:49:51.031Z,7.93
2017-07-11T19:52:18.506Z,15.60
2017-07-11T19:54:46.024Z,8.53
2017-07-11T19:57:13.492Z,10.90
2017-07-11T19:59:42.003Z,12.50
2017-07-11T20:02:09.449Z,9.27
2017-07-11T20:04:36.866Z,10.37
2017-07-11T20:07:05.123Z,11.83
2017-07-11T20:09:32.728Z,9.37
2017-07-11T20:12:00.969Z,13.07
2017-07-11T20:14:28.587Z,10.53
2017-07-11T20:16:56.364Z,23.60
2017-07-11T20:19:23.850Z,11.10
2017-07-11T20:21:51.340Z,15.60
2017-07-11T20:24:18.798Z,17.20
2017-07-11T20:26:46.284Z,14.03
2017-07-11T20:29:13.767Z,18.37
2017-07-11T20:31:41.255Z,12.87
2017-07-11T20:34:08.718Z,12.30
2017-07-11T20:36:36.249Z,10.40
2017-07-11T20:39:03.672Z,15.13
2017-07-11T20:41:31.132Z,19.67
2017-07-11T20:43:58.663Z,17.20
2017-07-11T20:46:58.955Z,14.00
2017-07-11T23:05:23.621Z,12.07
2017-07-11T23:07:52.599Z,7.80
2017-07-11T23:10:20.061Z,9.00
2017-07-11T23:12:47.485Z,8.40
2017-07-11T23:15:15.690Z,10.40
2017-07-11T23:17:43.119Z,8.90
2017-07-11T23:20:11.314Z,8.53
2017-07-11T23:22:38.741Z,7.40
2017-07-11T23:25:06.941Z,9.80
2017-07-11T23:27:34.359Z,8.30
2017-07-11T23:30:01.794Z,11.80
2017-07-11T23:32:29.215Z,8.97
2017-07-11T23:34:56.633Z,7.40
2017-07-11T23:37:24.829Z,10.23
2017-07-11T23:39:52.283Z,6.47
2017-07-11T23:42:19.709Z,10.77
2017-07-11T23:44:47.153Z,14.27
2017-07-11T23:47:14.586Z,11.80
2017-07-11T23:49:42.010Z,10.20
2017-07-11T23:52:09.439Z,9.77
2017-07-11T23:54:37.637Z,11.07
2017-07-11T23:57:05.061Z,9.50
2017-07-11T23:59:32.511Z,10.53
